Time;durP1;ratioP1;P1;durP2;ratioP2;P2;SDS_P1;SDS_P2;PMS_P1;PMS_P2;Temp;Humidity;BMP_temperature;BMP_pressure;BME280_temperature;BME280_humidity;BME280_pressure;Samples;Min_cycle;Max_cycle;Signal;HPM_P1;HPM_P2
2021/11/10 00:01:49;;;;;;;4.72;1.40;;;;;;;2.19;73.63;101573.98;1794488;79;21751;-76
2021/11/10 00:04:54;;;;;;;3.60;2.15;;;;;;;2.17;73.12;101586.22;1795553;79;21803;-76
2021/11/10 00:08:02;;;;;;;2.60;1.77;;;;;;;2.16;73.25;101588.51;1794079;80;21389;-75
2021/11/10 00:11:08;;;;;;;3.35;1.85;;;;;;;2.14;72.90;101593.14;1794719;79;21231;-75
2021/11/10 00:14:13;;;;;;;2.25;1.77;;;;;;;2.13;72.93;101606.74;1795817;79;21704;-75
2021/11/10 00:17:20;;;;;;;2.70;1.65;;;;;;;2.10;71.66;101623.11;1796032;79;21303;-75
2021/11/10 00:20:26;;;;;;;2.17;1.80;;;;;;;2.05;70.98;101618.84;1798181;79;21223;-76
2021/11/10 00:23:32;;;;;;;2.35;1.70;;;;;;;2.06;71.74;101630.50;1798842;79;21184;-75
2021/11/10 00:26:38;;;;;;;2.02;1.65;;;;;;;2.06;71.56;101633.20;1801176;79;21330;-75
2021/11/10 00:29:43;;;;;;;2.15;1.55;;;;;;;2.03;71.35;101632.92;1800868;79;21350;-75
2021/11/10 00:32:50;;;;;;;2.83;1.57;;;;;;;2.04;71.86;101642.75;1800860;79;21176;-76
2021/11/10 00:35:56;;;;;;;1.80;1.70;;;;;;;2.03;71.97;101652.30;1800751;79;21279;-76
2021/11/10 00:39:02;;;;;;;1.98;1.57;;;;;;;2.02;71.67;101641.09;1800724;79;21297;-76
2021/11/10 00:42:07;;;;;;;6.35;1.40;;;;;;;2.01;71.48;101644.75;1798886;79;21254;-75
2021/11/10 00:45:14;;;;;;;2.87;1.72;;;;;;;1.98;71.47;101652.56;1800161;79;21152;-76
2021/11/10 00:48:21;;;;;;;2.92;1.72;;;;;;;1.91;71.24;101646.25;1799542;79;21203;-75
2021/11/10 00:51:26;;;;;;;2.33;1.65;;;;;;;1.84;71.35;101652.48;1801060;79;21172;-75
2021/11/10 00:54:32;;;;;;;2.60;1.70;;;;;;;1.81;71.84;101659.88;1802138;79;21266;-76
2021/11/10 00:57:38;;;;;;;4.33;1.50;;;;;;;1.77;72.38;101656.47;1800434;79;21246;-76
2021/11/10 01:00:45;;;;;;;3.22;1.92;;;;;;;1.75;72.85;101651.66;1801853;79;21314;-76
2021/11/10 01:03:52;;;;;;;2.67;1.70;;;;;;;1.76;73.37;101661.48;1801216;79;21294;-75
2021/11/10 01:06:58;;;;;;;2.92;1.98;;;;;;;1.76;73.67;101656.95;1801033;79;21385;-75
2021/11/10 01:10:03;;;;;;;2.80;1.67;;;;;;;1.74;73.50;101663.38;1808513;78;21177;-76
2021/11/10 01:13:10;;;;;;;3.15;2.10;;;;;;;1.69;73.68;101674.43;1761288;81;21260;-76
2021/11/10 01:16:19;;;;;;;7.80;2.92;;;;;;;1.63;73.91;101676.12;1763271;81;21301;-75
2021/11/10 01:19:26;;;;;;;9.18;4.37;;;;;;;1.57;73.61;101679.19;1761204;81;21221;-76
2021/11/10 01:22:34;;;;;;;6.00;3.20;;;;;;;1.46;71.50;101695.97;1763738;81;21165;-75
2021/11/10 01:25:40;;;;;;;8.08;2.80;;;;;;;1.34;70.53;101693.06;1762041;81;21840;-75
2021/11/10 01:28:46;;;;;;;7.55;3.12;;;;;;;1.20;70.22;101700.06;1762089;81;21351;-76
2021/11/10 01:31:54;;;;;;;6.12;2.98;;;;;;;1.06;69.98;101705.31;1763854;81;21348;-75
2021/11/10 01:35:01;;;;;;;5.10;2.50;;;;;;;0.98;70.41;101698.11;1833724;78;21846;-76
2021/11/10 01:38:06;;;;;;;5.20;2.50;;;;;;;0.88;70.38;101711.19;1835155;78;21743;-75
2021/11/10 01:41:13;;;;;;;3.90;2.17;;;;;;;0.80;70.98;101717.92;1743717;81;21311;-75
2021/11/10 01:44:28;;;;;;;2.42;1.87;;;;;;;0.75;71.37;101723.10;1750989;81;21679;-75
2021/11/10 01:47:33;;;;;;;8.15;2.12;;;;;;;0.71;71.88;101730.94;1736641;82;23210;-75
2021/11/10 01:50:39;;;;;;;7.58;1.82;;;;;;;0.66;71.74;101727.61;1749663;81;21320;-76
2021/11/10 01:53:44;;;;;;;3.20;1.95;;;;;;;0.63;71.57;101739.88;1736400;82;21311;-75
2021/11/10 01:56:51;;;;;;;4.03;1.60;;;;;;;0.59;71.80;101737.41;1770215;81;21891;-76
2021/11/10 02:00:17;;;;;;;3.00;1.82;;;;;;;0.57;72.16;101746.92;1740863;81;21308;-75
2021/11/10 02:03:25;;;;;;;6.97;1.95;;;;;;;0.53;72.32;101757.45;1783375;80;21857;-76
2021/11/10 02:06:33;;;;;;;3.40;1.90;;;;;;;0.51;72.75;101754.81;1762413;81;21717;-75
2021/11/10 02:09:51;;;;;;;4.12;1.90;;;;;;;0.50;72.79;101772.40;1763813;81;21867;-76
2021/11/10 02:12:56;;;;;;;8.25;2.60;;;;;;;0.45;73.18;101764.55;1763282;81;21320;-75
2021/11/10 02:16:01;;;;;;;3.58;2.12;;;;;;;0.40;73.33;101773.80;1762806;81;22232;-75
2021/11/10 02:19:05;;;;;;;5.85;2.42;;;;;;;0.32;73.90;101770.13;1762002;81;21303;-76
2021/11/10 02:22:21;;;;;;;5.37;2.55;;;;;;;0.26;74.40;101770.44;1799383;78;21532;-76
2021/11/10 02:25:30;;;;;;;8.33;3.22;;;;;;;0.23;74.88;101775.96;1802097;79;21293;-76
2021/11/10 02:28:35;;;;;;;7.72;2.83;;;;;;;0.21;75.12;101770.66;1799732;79;21387;-77
2021/11/10 02:31:40;;;;;;;6.22;2.67;;;;;;;0.20;75.53;101770.75;1800455;79;21300;-77
2021/11/10 02:34:47;;;;;;;9.13;2.95;;;;;;;0.16;75.96;101786.16;1800316;79;21344;-75
2021/11/10 02:37:58;;;;;;;8.80;3.00;;;;;;;0.10;76.28;101781.09;1800577;79;21253;-75
2021/11/10 02:41:03;;;;;;;9.40;3.95;;;;;;;0.08;76.50;101795.55;1799684;79;21300;-75
2021/11/10 02:44:09;;;;;;;14.83;5.53;;;;;;;0.05;76.65;101793.89;1798830;79;21331;-76
2021/11/10 02:47:15;;;;;;;11.55;4.90;;;;;;;0.05;76.71;101805.09;1799859;79;21281;-75
2021/11/10 02:50:19;;;;;;;11.20;4.08;;;;;;;0.02;76.31;101805.26;1790445;79;21327;-76
2021/11/10 02:53:26;;;;;;;12.60;4.35;;;;;;;-0.02;75.89;101809.91;1803051;79;21268;-75
2021/11/10 02:56:33;;;;;;;10.55;4.10;;;;;;;-0.04;76.04;101818.06;1801352;79;21284;-75
2021/11/10 02:59:41;;;;;;;7.65;3.45;;;;;;;-0.08;74.91;101829.90;1798885;79;21890;-76
2021/11/10 03:02:47;;;;;;;13.00;3.80;;;;;;;-0.16;74.45;101826.69;1800512;79;21280;-76
2021/11/10 03:05:55;;;;;;;5.85;2.85;;;;;;;-0.25;74.47;101851.31;1798576;79;21292;-76
2021/11/10 03:09:02;;;;;;;9.95;3.55;;;;;;;-0.31;74.19;101836.33;1798572;79;21320;-76
2021/11/10 03:12:09;;;;;;;8.28;3.27;;;;;;;-0.37;74.32;101836.62;1800737;79;21292;-76
2021/11/10 03:15:14;;;;;;;7.87;3.00;;;;;;;-0.43;74.66;101842.25;1798564;79;21182;-75
2021/11/10 03:18:20;;;;;;;4.30;2.62;;;;;;;-0.48;74.05;101855.02;1798396;79;21375;-75
2021/11/10 03:21:25;;;;;;;9.93;3.00;;;;;;;-0.54;73.13;101861.55;1799171;79;21633;-75
2021/11/10 03:24:30;;;;;;;8.78;3.77;;;;;;;-0.57;73.02;101860.80;1817341;79;21280;-75
2021/11/10 03:27:36;;;;;;;8.10;3.30;;;;;;;-0.58;72.81;101857.72;1801318;79;21276;-75
2021/11/10 03:30:42;;;;;;;9.10;3.47;;;;;;;-0.60;72.91;101860.48;1799778;79;21848;-76
2021/11/10 03:33:47;;;;;;;8.68;3.55;;;;;;;-0.64;72.91;101868.27;1801105;79;21335;-75
2021/11/10 03:36:54;;;;;;;8.83;3.58;;;;;;;-0.67;73.16;101868.39;1801729;79;21217;-75
2021/11/10 03:40:00;;;;;;;8.18;3.85;;;;;;;-0.71;73.48;101869.47;1800182;79;21907;-75
2021/11/10 03:43:06;;;;;;;14.63;4.65;;;;;;;-0.74;73.82;101881.70;1800320;79;21820;-75
2021/11/10 03:46:12;;;;;;;7.30;3.27;;;;;;;-0.77;74.13;101884.05;1798732;79;21335;-75
2021/11/10 03:49:21;;;;;;;13.53;3.67;;;;;;;-0.78;74.58;101889.02;1798638;79;21209;-75
2021/11/10 03:52:25;;;;;;;4.92;2.50;;;;;;;-0.82;74.92;101892.77;1799618;79;21836;-75
2021/11/10 03:55:40;;;;;;;4.45;2.17;;;;;;;-0.84;75.72;101897.83;1799788;79;21264;-76
2021/11/10 03:58:40;;;;;;;4.87;2.02;;;;;;;-0.85;77.51;101898.30;1800908;79;21978;-75
2021/11/10 04:01:45;;;;;;;4.30;2.17;;;;;;;-0.85;78.64;101903.67;1799343;79;21863;-75
2021/11/10 04:04:51;;;;;;;4.20;2.15;;;;;;;-0.85;79.72;101916.20;1799732;79;21327;-76
2021/11/10 04:07:57;;;;;;;7.90;2.00;;;;;;;-0.90;80.42;101920.42;1799906;79;21170;-75
2021/11/10 04:11:05;;;;;;;3.80;2.40;;;;;;;-0.95;80.95;101922.42;1798262;79;21316;-75
2021/11/10 04:14:10;;;;;;;17.25;6.78;;;;;;;-0.98;81.17;101926.60;1800494;78;21209;-75
2021/11/10 04:17:11;;;;;;;6.50;3.02;;;;;;;-1.02;81.31;101932.16;1799271;79;21732;-75
2021/11/10 04:20:16;;;;;;;5.87;2.75;;;;;;;-1.08;81.49;101937.32;1800489;79;21295;-75
2021/11/10 04:23:23;;;;;;;4.97;2.37;;;;;;;-1.13;81.55;101940.62;1730996;82;21559;-75
2021/11/10 04:26:31;;;;;;;4.42;1.87;;;;;;;-1.19;81.76;101939.08;1755606;81;21288;-75
2021/11/10 04:29:42;;;;;;;6.53;2.80;;;;;;;-1.23;81.94;101946.84;1805008;79;21311;-75
2021/11/10 04:32:48;;;;;;;2.80;2.20;;;;;;;-1.26;82.08;101955.51;1793645;78;21296;-75
2021/11/10 04:35:53;;;;;;;3.35;2.20;;;;;;;-1.29;82.19;101957.36;1803826;79;21212;-76
2021/11/10 04:39:00;;;;;;;4.28;2.45;;;;;;;-1.32;82.25;101963.31;1802517;79;21910;-76
2021/11/10 04:42:08;;;;;;;3.20;2.25;;;;;;;-1.35;82.35;101967.48;1806007;78;21157;-75
2021/11/10 04:45:25;;;;;;;3.47;2.12;;;;;;;-1.38;82.34;101967.11;1800537;79;21213;-75
2021/11/10 04:48:23;;;;;;;5.50;2.67;;;;;;;-1.38;82.20;101976.51;1733426;81;21304;-76
2021/11/10 04:51:29;;;;;;;2.58;2.12;;;;;;;-1.38;82.21;101979.66;1750670;81;21380;-75
2021/11/10 04:54:36;;;;;;;4.90;2.08;;;;;;;-1.38;82.29;101982.34;1717248;83;21314;-75
2021/11/10 04:57:41;;;;;;;4.17;2.33;;;;;;;-1.41;82.29;101986.48;1761987;80;21170;-75
2021/11/10 05:00:47;;;;;;;4.55;2.75;;;;;;;-1.44;82.40;101992.86;1737782;82;21197;-75
2021/11/10 05:03:52;;;;;;;7.78;2.52;;;;;;;-1.43;82.46;101997.76;1732298;83;21347;-75
2021/11/10 05:06:59;;;;;;;7.30;2.50;;;;;;;-1.45;82.46;101995.14;1780325;79;21831;-75
2021/11/10 05:10:06;;;;;;;6.35;2.83;;;;;;;-1.46;82.33;102000.55;1802109;79;21763;-76
2021/11/10 05:13:14;;;;;;;4.03;2.67;;;;;;;-1.47;82.40;102002.36;1800108;79;21156;-75
2021/11/10 05:16:20;;;;;;;4.83;2.45;;;;;;;-1.46;82.47;101998.73;1810190;78;21828;-75
2021/11/10 05:19:28;;;;;;;6.80;2.55;;;;;;;-1.43;82.41;102004.00;1763509;81;21279;-76
2021/11/10 05:22:34;;;;;;;2.87;2.00;;;;;;;-1.41;82.13;102007.52;1831939;78;21236;-75
2021/11/10 05:25:39;;;;;;;7.95;2.72;;;;;;;-1.41;82.02;102011.55;1804701;78;21857;-76
2021/11/10 05:28:44;;;;;;;3.87;2.40;;;;;;;-1.42;81.86;102020.50;1735985;81;21156;-75
2021/11/10 05:31:50;;;;;;;7.42;2.47;;;;;;;-1.41;81.91;102023.63;1794916;79;21312;-76
2021/11/10 05:34:58;;;;;;;8.13;2.80;;;;;;;-1.40;82.01;102026.71;1798460;79;21283;-76
2021/11/10 05:38:03;;;;;;;5.72;2.90;;;;;;;-1.38;81.79;102026.17;1731949;83;21304;-75
2021/11/10 05:41:09;;;;;;;6.35;2.37;;;;;;;-1.36;81.41;102026.14;1800508;78;21271;-75
2021/11/10 05:44:16;;;;;;;4.87;2.67;;;;;;;-1.35;81.51;102030.56;1799333;77;21261;-75
2021/11/10 05:47:22;;;;;;;13.30;3.20;;;;;;;-1.32;81.70;102034.45;1788977;79;21280;-76
2021/11/10 05:50:27;;;;;;;3.85;2.42;;;;;;;-1.27;81.52;102042.33;1801295;78;21512;-75
2021/11/10 05:53:33;;;;;;;5.10;2.58;;;;;;;-1.26;81.57;102040.95;1790773;79;21157;-75
2021/11/10 05:56:41;;;;;;;4.58;2.40;;;;;;;-1.21;81.92;102054.20;1793746;79;21248;-76
2021/11/10 05:59:48;;;;;;;4.45;2.85;;;;;;;-1.17;81.75;102050.47;1809705;79;22525;-76
2021/11/10 06:02:56;;;;;;;5.00;2.40;;;;;;;-1.19;81.30;102050.52;1732026;81;21293;-76
2021/11/10 06:06:02;;;;;;;4.22;2.37;;;;;;;-1.16;81.06;102065.64;1800642;79;21173;-76
2021/11/10 06:09:08;;;;;;;4.95;2.70;;;;;;;-1.17;81.52;102074.17;1782967;79;21300;-77
2021/11/10 06:12:15;;;;;;;5.90;2.90;;;;;;;-1.16;81.26;102068.33;1785513;79;21637;-75
2021/11/10 06:15:26;;;;;;;5.75;2.75;;;;;;;-1.13;81.02;102078.94;1791447;79;21269;-78
2021/11/10 06:18:33;;;;;;;8.05;3.00;;;;;;;-1.11;81.29;102079.30;1802263;77;21549;-77
2021/11/10 06:21:38;;;;;;;5.20;3.20;;;;;;;-1.06;80.78;102083.16;1715943;80;21279;-77
2021/11/10 06:24:52;;;;;;;8.08;3.20;;;;;;;-1.03;79.93;102085.73;1768291;79;21335;-82
2021/11/10 06:28:02;;;;;;;5.17;3.20;;;;;;;-1.03;79.74;102096.48;1765396;79;21292;-78
2021/11/10 06:31:07;;;;;;;6.58;3.17;;;;;;;-1.02;79.59;102100.91;1744517;80;21392;-77
2021/11/10 06:34:12;;;;;;;7.12;3.45;;;;;;;-0.99;80.08;102094.05;1805071;77;21616;-78
2021/11/10 06:37:17;;;;;;;7.78;4.00;;;;;;;-0.94;80.23;102100.16;1804624;77;21239;-78
2021/11/10 06:40:22;;;;;;;8.95;3.83;;;;;;;-0.88;80.00;102093.19;1801407;77;21343;-76
2021/11/10 06:43:29;;;;;;;10.45;3.62;;;;;;;-0.82;79.81;102101.00;1809274;77;21169;-77
2021/11/10 06:46:35;;;;;;;11.15;3.02;;;;;;;-0.77;79.09;102103.04;1804890;77;21193;-78
2021/11/10 06:49:41;;;;;;;7.08;3.55;;;;;;;-0.71;79.28;102102.39;1797046;77;21543;-77
2021/11/10 06:52:48;;;;;;;7.53;3.20;;;;;;;-0.67;78.32;102105.37;1816235;77;21329;-77
2021/11/10 06:55:53;;;;;;;6.42;2.83;;;;;;;-0.64;77.61;102111.50;1805530;77;21154;-76
2021/11/10 06:59:00;;;;;;;8.90;3.95;;;;;;;-0.65;76.50;102115.61;1806671;77;21283;-79
2021/11/10 07:02:07;;;;;;;5.65;2.85;;;;;;;-0.65;77.72;102115.61;1802672;77;21329;-79
2021/11/10 07:05:13;;;;;;;4.70;3.00;;;;;;;-0.62;76.91;102122.19;1809649;77;21526;-78
2021/11/10 07:08:24;;;;;;;6.42;3.05;;;;;;;-0.61;75.98;102119.90;1798643;77;21208;-79
2021/11/10 07:11:31;;;;;;;4.83;2.75;;;;;;;-0.59;76.40;102126.11;1799516;77;21299;-79
2021/11/10 07:14:36;;;;;;;4.15;2.92;;;;;;;-0.57;76.56;102132.28;1807894;77;21343;-78
2021/11/10 07:17:43;;;;;;;5.53;3.08;;;;;;;-0.52;77.21;102128.50;1741864;80;21831;-79
2021/11/10 07:20:48;;;;;;;6.15;3.08;;;;;;;-0.48;76.42;102127.02;1745075;80;21275;-79
2021/11/10 07:23:55;;;;;;;5.03;3.08;;;;;;;-0.45;76.28;102127.77;1745657;80;21838;-77
2021/11/10 07:27:02;;;;;;;9.50;3.45;;;;;;;-0.41;74.93;102124.03;1804604;77;21841;-78
2021/11/10 07:30:11;;;;;;;8.35;3.37;;;;;;;-0.40;74.79;102139.22;1808614;77;21247;-78
2021/11/10 07:33:19;;;;;;;7.28;3.15;;;;;;;-0.40;74.60;102137.00;1736496;80;21280;-77
2021/11/10 07:36:25;;;;;;;5.67;3.10;;;;;;;-0.37;74.76;102135.55;1712457;81;21201;-78
2021/11/10 07:39:32;;;;;;;8.48;3.45;;;;;;;-0.36;74.84;102139.51;1792559;77;21308;-77
2021/11/10 07:42:42;;;;;;;6.22;3.20;;;;;;;-0.33;74.48;102133.11;1744575;80;21189;-77
2021/11/10 07:45:51;;;;;;;10.18;3.75;;;;;;;-0.29;74.57;102140.99;1802806;77;21200;-78
2021/11/10 07:48:58;;;;;;;8.88;3.90;;;;;;;-0.30;74.51;102148.66;1772173;77;21204;-79
2021/11/10 07:52:03;;;;;;;6.40;3.42;;;;;;;-0.24;74.91;102141.28;1738717;80;21646;-76
2021/11/10 07:55:09;;;;;;;6.75;3.67;;;;;;;-0.16;74.56;102157.99;1810054;77;21756;-77
2021/11/10 07:58:15;;;;;;;11.93;3.70;;;;;;;-0.08;74.51;102147.80;1801156;77;21274;-77
2021/11/10 08:01:20;;;;;;;4.40;2.83;;;;;;;0.02;74.34;102157.70;1806059;77;21181;-76
2021/11/10 08:04:25;;;;;;;6.35;3.55;;;;;;;0.13;72.75;102159.00;1807877;77;21271;-77
2021/11/10 08:07:31;;;;;;;5.95;3.55;;;;;;;0.22;72.96;102155.92;1743517;80;21142;-78
2021/11/10 08:10:36;;;;;;;13.62;3.83;;;;;;;0.31;71.32;102175.31;1811529;77;21786;-78
2021/11/10 08:13:42;;;;;;;7.22;4.17;;;;;;;0.30;71.23;102158.77;1737486;80;21137;-77
2021/11/10 08:16:47;;;;;;;5.75;3.70;;;;;;;0.28;71.35;102180.82;1811069;77;21274;-77
2021/11/10 08:19:53;;;;;;;5.47;4.28;;;;;;;0.27;71.57;102166.97;1809991;77;21238;-77
2021/11/10 08:22:58;;;;;;;7.80;4.75;;;;;;;0.29;71.55;102159.72;1812880;77;21279;-78
2021/11/10 08:26:04;;;;;;;6.80;4.45;;;;;;;0.34;71.65;102167.12;1810972;77;21323;-78
2021/11/10 08:29:10;;;;;;;11.75;4.47;;;;;;;0.37;72.02;102166.50;1763401;77;21201;-77
2021/11/10 08:32:17;;;;;;;14.83;4.30;;;;;;;0.40;71.46;102162.81;1720487;80;21181;-77
2021/11/10 08:35:24;;;;;;;8.83;4.65;;;;;;;0.48;71.50;102163.36;1707611;80;21321;-76
2021/11/10 08:38:31;;;;;;;11.38;4.65;;;;;;;0.57;71.01;102163.44;1756521;77;21692;-75
2021/11/10 08:41:41;;;;;;;7.00;4.70;;;;;;;0.60;70.19;102165.50;1756783;77;21184;-77
2021/11/10 08:44:52;;;;;;;12.37;4.40;;;;;;;0.67;70.87;102168.34;1758127;77;21316;-76
2021/11/10 08:47:58;;;;;;;17.50;4.70;;;;;;;0.71;70.24;102168.63;1815188;77;21342;-79
2021/11/10 08:51:04;;;;;;;8.45;4.55;;;;;;;0.68;70.21;102163.83;1813073;77;21354;-78
2021/11/10 08:54:09;;;;;;;10.45;4.90;;;;;;;0.59;69.76;102166.45;1806899;77;21600;-78
2021/11/10 08:57:14;;;;;;;8.45;4.50;;;;;;;0.53;70.83;102168.08;1804815;77;21736;-78
2021/11/10 09:00:25;;;;;;;11.38;4.37;;;;;;;0.53;70.95;102173.47;1803977;77;21330;-78
2021/11/10 09:03:31;;;;;;;7.28;4.58;;;;;;;0.60;70.02;102161.47;1804105;77;21295;-78
2021/11/10 09:06:37;;;;;;;9.70;4.10;;;;;;;0.68;69.89;102156.63;1813314;77;21673;-76
2021/11/10 09:09:43;;;;;;;8.73;5.05;;;;;;;0.80;69.25;102161.05;1808887;77;21809;-76
2021/11/10 09:12:48;;;;;;;11.53;4.62;;;;;;;0.86;69.20;102164.36;1803867;77;21326;-78
2021/11/10 09:15:53;;;;;;;9.30;3.90;;;;;;;0.94;69.18;102164.91;1800571;77;21382;-78
2021/11/10 09:19:00;;;;;;;11.75;4.58;;;;;;;0.98;69.36;102166.96;1802305;78;21209;-78
2021/11/10 09:22:05;;;;;;;11.25;5.08;;;;;;;1.01;69.42;102169.53;1798330;79;21288;-78
2021/11/10 09:25:10;;;;;;;9.13;4.12;;;;;;;1.09;69.04;102164.67;1800111;78;22276;-77
2021/11/10 09:28:16;;;;;;;8.35;4.67;;;;;;;1.15;67.89;102166.20;1801208;77;21276;-77
2021/11/10 09:31:21;;;;;;;7.53;3.72;;;;;;;1.15;66.99;102168.42;1807286;77;21351;-78
2021/11/10 09:34:27;;;;;;;5.72;3.58;;;;;;;1.09;68.02;102175.45;1800970;77;21362;-78
2021/11/10 09:37:32;;;;;;;15.60;4.53;;;;;;;1.09;68.34;102161.98;1807015;77;21482;-77
2021/11/10 09:40:44;;;;;;;12.10;5.17;;;;;;;1.12;68.15;102173.07;1809179;77;21181;-77
2021/11/10 09:43:50;;;;;;;14.53;4.35;;;;;;;1.15;67.55;102174.29;1798657;77;22284;-77
2021/11/10 09:47:00;;;;;;;9.80;4.55;;;;;;;1.20;67.35;102173.61;1819023;77;21319;-77
2021/11/10 09:50:08;;;;;;;9.23;3.95;;;;;;;1.24;67.10;102180.61;1814463;77;21312;-75
2021/11/10 09:53:12;;;;;;;8.48;4.72;;;;;;;1.23;67.33;102183.78;1741968;80;21789;-78
2021/11/10 09:56:18;;;;;;;9.58;5.47;;;;;;;1.25;67.12;102181.88;1739829;80;21314;-77
2021/11/10 09:59:24;;;;;;;8.18;4.97;;;;;;;1.24;67.96;102171.17;1764508;79;21598;-76
2021/11/10 10:02:33;;;;;;;;;;;;;;;1.26;67.92;102182.27;1763763;79;21363;-76
2021/11/10 10:05:39;;;;;;;7.65;4.08;;;;;;;1.32;68.21;102178.44;1738578;79;21009;-77
2021/11/10 10:08:45;;;;;;;10.13;4.58;;;;;;;1.41;66.22;102182.50;1803433;77;21185;-77
2021/11/10 10:11:51;;;;;;;10.68;4.15;;;;;;;1.48;66.62;102182.63;1798567;78;21292;-77
2021/11/10 10:14:58;;;;;;;8.58;4.60;;;;;;;1.51;66.61;102175.75;1800486;78;21185;-77
2021/11/10 10:18:06;;;;;;;8.93;5.30;;;;;;;1.52;67.00;102183.77;1805833;77;21274;-77
2021/11/10 10:21:14;;;;;;;10.13;5.00;;;;;;;1.59;66.28;102185.68;1735195;80;21189;-77
2021/11/10 10:24:21;;;;;;;11.73;4.37;;;;;;;1.66;66.07;102184.45;1742329;80;21196;-76
2021/11/10 10:27:36;;;;;;;10.48;4.87;;;;;;;1.75;66.62;102185.36;1753424;79;21453;-77
2021/11/10 10:30:52;;;;;;;14.60;4.53;;;;;;;1.76;66.70;102195.20;1735115;81;21876;-77
2021/11/10 10:34:09;;;;;;;16.25;4.87;;;;;;;1.77;65.76;102184.80;1807181;77;21556;-76
2021/11/10 10:37:32;;;;;;;11.63;4.85;;;;;;;1.75;65.92;102181.31;1808973;77;21890;-77
2021/11/10 10:40:37;;;;;;;9.05;5.15;;;;;;;1.83;66.00;102184.10;1741707;80;21907;-77
2021/11/10 10:43:49;;;;;;;7.55;4.60;;;;;;;1.91;66.13;102184.61;1807425;77;21184;-76
2021/11/10 10:47:04;;;;;;;8.55;4.92;;;;;;;1.95;65.79;102187.09;1812774;77;21330;-76
2021/11/10 10:50:10;;;;;;;8.15;4.70;;;;;;;1.99;66.02;102186.47;1804575;77;21300;-77
2021/11/10 10:53:18;;;;;;;9.13;4.08;;;;;;;2.05;66.06;102183.45;1803843;77;21331;-77
2021/11/10 10:56:30;;;;;;;7.85;3.92;;;;;;;2.14;66.92;102195.63;1806198;77;21185;-76
2021/11/10 10:59:35;;;;;;;;;;;;;;;2.11;65.80;102185.84;1802566;77;21232;-76
2021/11/10 11:02:40;;;;;;;13.85;5.47;;;;;;;2.09;66.26;102186.41;1802821;77;20463;-77
2021/11/10 11:05:48;;;;;;;10.45;5.40;;;;;;;2.13;64.94;102189.36;1800096;77;21602;-77
2021/11/10 11:08:53;;;;;;;14.98;6.62;;;;;;;2.18;64.64;102187.78;1811890;77;21208;-76
2021/11/10 11:12:17;;;;;;;9.80;4.65;;;;;;;2.23;64.35;102182.55;1808508;77;21157;-76
2021/11/10 11:15:36;;;;;;;7.70;4.67;;;;;;;2.28;64.21;102177.78;1814266;77;21275;-76
2021/11/10 11:18:35;;;;;;;10.35;5.03;;;;;;;2.27;64.46;102175.17;1751313;80;21206;-77
2021/11/10 11:21:40;;;;;;;9.48;4.90;;;;;;;2.26;63.79;102174.30;1805394;77;21280;-77
2021/11/10 11:24:49;;;;;;;7.33;4.70;;;;;;;2.32;63.36;102170.89;1803284;77;21276;-77
2021/11/10 11:28:09;;;;;;;9.60;5.55;;;;;;;2.33;63.05;102172.63;1785793;77;21375;-78
2021/11/10 11:31:16;;;;;;;11.28;4.85;;;;;;;2.32;62.63;102174.45;1732130;80;21255;-76
2021/11/10 11:34:22;;;;;;;10.40;4.33;;;;;;;2.30;62.60;102173.16;1704542;81;21315;-77
2021/11/10 11:37:31;;;;;;;7.70;4.85;;;;;;;2.32;63.87;102168.19;1754546;79;21727;-76
2021/11/10 11:40:35;;;;;;;10.75;4.72;;;;;;;2.31;63.96;102163.27;1774003;79;21274;-76
2021/11/10 11:43:40;;;;;;;15.75;6.03;;;;;;;2.31;63.49;102153.81;1774413;78;21867;-76
2021/11/10 11:46:52;;;;;;;9.03;5.08;;;;;;;2.32;64.13;102157.38;1771879;79;21313;-76
2021/11/10 11:50:03;;;;;;;8.98;5.37;;;;;;;2.35;64.22;102159.42;1779718;79;21347;-76
2021/11/10 11:53:05;;;;;;;7.67;4.83;;;;;;;2.39;64.01;102157.45;1781307;79;21228;-78
2021/11/10 11:56:15;;;;;;;10.32;4.85;;;;;;;2.38;62.93;102159.77;1778554;79;21232;-78
2021/11/10 11:59:21;;;;;;;7.58;4.12;;;;;;;2.34;62.90;102167.62;1770346;80;21323;-77
2021/11/10 12:02:33;;;;;;;13.35;4.72;;;;;;;2.33;63.04;102172.63;1779516;79;21234;-78
2021/11/10 12:05:39;;;;;;;12.13;5.55;;;;;;;2.29;63.53;102166.02;1782136;80;21206;-78
2021/11/10 12:08:55;;;;;;;9.05;4.60;;;;;;;2.30;62.86;102164.19;1777365;79;21209;-78
2021/11/10 12:12:04;;;;;;;13.00;5.75;;;;;;;2.30;62.38;102158.31;1755527;79;21410;-78
2021/11/10 12:15:08;;;;;;;12.03;5.35;;;;;;;2.28;62.88;102163.41;1703006;83;21213;-78
2021/11/10 12:18:20;;;;;;;9.58;4.65;;;;;;;2.27;62.52;102165.23;1708281;82;21367;-78
2021/11/10 12:21:29;;;;;;;15.23;5.60;;;;;;;2.27;62.16;102165.23;1772172;80;21693;-77
2021/11/10 12:24:55;;;;;;;12.30;5.37;;;;;;;2.28;61.88;102166.11;1776479;80;21291;-78
2021/11/10 12:28:02;;;;;;;16.90;6.53;;;;;;;2.23;61.52;102166.34;1783595;79;21240;-78
2021/11/10 12:31:07;;;;;;;17.85;7.08;;;;;;;2.22;61.44;102161.90;1703648;83;21894;-77
2021/11/10 12:34:23;;;;;;;12.43;5.45;;;;;;;2.21;61.06;102167.36;1778200;79;22426;-77
2021/11/10 12:37:44;;;;;;;13.43;5.75;;;;;;;2.18;61.42;102175.63;1782307;79;21315;-77
2021/11/10 12:41:08;;;;;;;14.15;6.55;;;;;;;2.17;61.38;102185.56;1779052;79;21600;-77
2021/11/10 12:44:18;;;;;;;12.88;5.08;;;;;;;2.16;61.21;102185.61;1711615;81;21326;-78
2021/11/10 12:47:48;;;;;;;16.82;5.12;;;;;;;2.15;61.18;102180.69;1709670;82;21205;-77
2021/11/10 12:50:54;;;;;;;9.05;4.35;;;;;;;2.16;61.82;102175.69;1718679;82;21859;-78
2021/11/10 12:54:11;;;;;;;7.15;4.42;;;;;;;2.12;62.38;102180.87;1770787;79;21257;-77
2021/11/10 12:57:18;;;;;;;10.30;4.37;;;;;;;2.10;62.03;102187.28;1715013;82;21323;-76
2021/11/10 13:00:31;;;;;;;10.15;4.17;;;;;;;2.07;62.14;102191.02;1717481;81;21777;-77
2021/11/10 13:03:39;;;;;;;13.30;4.15;;;;;;;2.05;62.05;102195.13;1732860;80;21233;-76
2021/11/10 13:06:54;;;;;;;13.65;5.72;;;;;;;2.03;62.39;102192.13;1747029;80;21154;-77
2021/11/10 13:10:10;;;;;;;17.80;5.42;;;;;;;1.98;63.04;102191.00;1781934;80;21263;-76
2021/11/10 13:13:18;;;;;;;10.20;5.00;;;;;;;1.97;62.94;102186.52;1714472;81;22137;-76
2021/11/10 13:16:23;;;;;;;10.65;5.30;;;;;;;1.97;63.07;102180.25;1713358;81;21305;-77
2021/11/10 13:19:50;;;;;;;6.58;4.37;;;;;;;1.96;63.06;102186.61;1715278;82;21192;-77
2021/11/10 13:22:59;;;;;;;12.10;4.70;;;;;;;1.96;63.53;102189.31;1741891;81;21173;-77
2021/11/10 13:26:03;;;;;;;11.40;4.87;;;;;;;1.89;63.68;102196.84;1732482;81;21248;-77
2021/11/10 13:29:09;;;;;;;13.55;4.78;;;;;;;1.87;63.69;102192.45;1787320;79;21152;-76
2021/11/10 13:32:18;;;;;;;10.18;4.70;;;;;;;1.84;63.20;102200.72;1712496;83;21364;-77
2021/11/10 13:35:24;;;;;;;7.80;4.87;;;;;;;1.84;63.84;102206.11;1742616;80;21153;-76
2021/11/10 13:38:50;;;;;;;10.70;5.72;;;;;;;1.83;64.48;102203.86;1765987;80;21252;-76
2021/11/10 13:41:57;;;;;;;13.53;4.78;;;;;;;1.79;64.78;102213.95;1771056;80;21295;-78
2021/11/10 13:45:18;;;;;;;12.13;4.65;;;;;;;1.77;64.68;102225.27;1780801;80;21177;-76
2021/11/10 13:48:23;;;;;;;14.47;5.37;;;;;;;1.74;64.95;102232.19;1771726;79;21943;-76
2021/11/10 13:51:28;;;;;;;9.78;5.33;;;;;;;1.73;64.80;102233.11;1782554;80;21265;-76
2021/11/10 13:54:38;;;;;;;16.87;5.70;;;;;;;1.72;65.00;102231.84;1780088;80;21701;-76
2021/11/10 13:57:46;;;;;;;17.17;5.85;;;;;;;1.71;65.31;102230.97;1778869;80;21268;-76
2021/11/10 14:00:51;;;;;;;15.40;5.50;;;;;;;1.69;65.49;102235.55;1781052;80;21217;-76
2021/11/10 14:03:57;;;;;;;11.05;5.62;;;;;;;1.68;65.61;102236.98;1763192;81;21185;-76
2021/11/10 14:07:10;;;;;;;10.35;5.25;;;;;;;1.65;65.72;102231.27;1784647;80;21296;-76
2021/11/10 14:10:18;;;;;;;12.75;5.95;;;;;;;1.61;66.03;102229.66;1793083;79;21801;-76
2021/11/10 14:13:24;;;;;;;12.43;5.95;;;;;;;1.54;66.52;102237.63;1769377;80;21185;-76
2021/11/10 14:16:31;;;;;;;12.93;4.85;;;;;;;1.45;67.04;102232.17;1762978;80;21197;-76
2021/11/10 14:19:37;;;;;;;12.43;5.62;;;;;;;1.36;67.65;102230.37;1785492;80;21221;-76
2021/11/10 14:22:42;;;;;;;9.68;5.75;;;;;;;1.23;68.24;102237.70;1776061;80;21174;-76
2021/11/10 14:26:04;;;;;;;16.37;6.53;;;;;;;1.14;68.71;102231.38;1780782;79;21879;-76
2021/11/10 14:29:09;;;;;;;12.20;6.62;;;;;;;1.08;69.05;102238.36;1788810;79;21815;-77
2021/11/10 14:32:15;;;;;;;18.23;7.08;;;;;;;1.01;69.37;102229.69;1802874;79;21291;-76
2021/11/10 14:35:23;;;;;;;14.95;7.17;;;;;;;0.95;69.61;102246.61;1816442;78;21185;-76
2021/11/10 14:38:34;;;;;;;14.20;5.92;;;;;;;0.88;69.98;102250.50;1733661;81;21292;-76